KCGFKBJJ

Guest
Details From KCGF - CUYAHOGA CO
To KBJJ - WAYNE CO
Flight Number -
Tags generated
Created
Modified
Stats Distance 45 nm / 84 km
Max Altitude 4,900 ft / 1,494 m
Waypoints 3
Social Downloads 1
Likes 0
Share VATSIM

Download

Looking for another format? Having issues loading an existing format? Contact us
Advertisement - Login to hide

Notes

Basic altitude profile: - Ascent Rate: 2500ft/min - Ascent Speed: 250kts - Cruise Altitude: 35000ft - Cruise Speed: 420kts - Descent Rate: 1500ft/min - Descent Speed: 250kts Options: - Use NATs: yes - Use PACOTS: yes - Use low airways: yes - Use high airways: yes

Route

KCGF IXORE KBJJ

ID Type Via Altitude Latitude Longitude Leg Dist Tot Dist Heading (true) Name
O KCGF APT - 0 ft / 0 m 41.56512˚ -81.48636˚ - 0 nm - CUYAHOGA CO
IXORE FIX - 4,900 ft / 1,494 m 41.35007˚ -81.59728˚ 13 nm 13 nm 201° / 201° -
O KBJJ APT - 0 ft / 0 m 40.87484˚ -81.88826˚ 31 nm 45 nm 205° / 205° WAYNE CO

Altitude Profile

Advertisement - Login to hide

KCGF

Details ICAO KCGF (CGF)
Name CUYAHOGA CO
Region United States
Timezone America/New_York (UTC-5.0)
Stats Elevation 879 ft / 268 m (AMSL)
Location 41.565123° -81.486356°
Runways 1
Magnetic Variation 8.517° W

METAR

KCGF 160045Z 25018G25KT 10SM -SN BKN025 OVC040 M03/M07 A2991

Decode

TAF

Not found

Departure Runways

ID Width Length Bearing (true) Bearing (mag) Surface Threshold Offset Overrun Length
06 98 ft / 30 m 5,098 ft / 1,554 m 49.37° 57.89° Asphalt 0 ft / 0 m 0 ft / 0 m
24 98 ft / 30 m 5,098 ft / 1,554 m 229.38° 237.90° Asphalt 0 ft / 0 m 0 ft / 0 m

KBJJ

Details ICAO KBJJ
Name WAYNE CO
Region United States
Timezone America/New_York (UTC-5.0)
Stats Elevation 1,136 ft / 346 m (AMSL)
Location 40.874843° -81.888262°
Runways 1
Magnetic Variation 8.087° W

METAR

KBJJ 160056Z AUTO 27013G22KT 10SM FEW024 FEW031 OVC046 M04/M08 A2995 RMK AO2 SLP161 T10391083

Decode

TAF

Not found

Destination Runways

ID Width Length Bearing (true) Bearing (mag) Surface Threshold Offset Overrun Length
10 98 ft / 30 m 5,179 ft / 1,579 m 90.00° 98.09° Asphalt 0 ft / 0 m 0 ft / 0 m
28 98 ft / 30 m 5,179 ft / 1,579 m 270.01° 278.10° Asphalt 217 ft / 66 m 0 ft / 0 m

Popular Alternatives